This is the latest recevied weather packets stored in our database for station/object WB5LFS-1. If no packets are shown the sender has not sent any weather packets the latest 10 day(s).
| Time | Temp. | Humidity | Pressure | Rain* | Wind** | Luminosity | Snow |
|---|---|---|---|---|---|---|---|
| 1777492618 | 20.56° C | 72% | 1009.6 hPa | 0 mm | - | - | - |
| 1777491718 | 21.11° C | 71% | 1009.7 hPa | 0 mm | - | - | - |
| 1777490818 | 21.11° C | 69% | 1010 hPa | 0 mm | - | - | - |
| 1777489918 | 21.11° C | 69% | 1010.3 hPa | 0 mm | - | - | - |
| 1777489018 | 21.11° C | 69% | 1010.6 hPa | 0 mm | - | - | - |
| 1777488118 | 21.11° C | 69% | 1010.9 hPa | 0 mm | - | - | - |
| 1777487218 | 21.11° C | 70% | 1011.3 hPa | 0 mm | - | - | - |
| 1777486318 | 20.56° C | 71% | 1011.3 hPa | 0 mm | - | - | - |
| 1777485418 | 20° C | 74% | 1011.6 hPa | 0 mm | - | - | - |
| 1777484518 | 19.44° C | 74% | 1011.6 hPa | 0 mm | - | - | - |
| 1777483618 | 19.44° C | 74% | 1011.8 hPa | 0 mm | - | - | - |
| 1777482718 | 19.44° C | 72% | 1012.2 hPa | 0 mm | - | - | - |
| 1777481818 | 19.44° C | 72% | 1012.6 hPa | 0 mm | - | - | - |
| 1777480918 | 19.44° C | 70% | 1012.7 hPa | 0 mm | - | - | - |
| 1777480018 | 20° C | 72% | 1012.9 hPa | 0 mm | - | - | - |
| 1777479118 | 19.44° C | 72% | 1012.9 hPa | 0 mm | - | - | - |
| 1777478218 | 19.44° C | 70% | 1013.1 hPa | 0 mm | - | - | - |
| 1777477318 | 18.89° C | 73% | 1013.5 hPa | 0 mm | - | - | - |
| 1777476418 | 18.33° C | 75% | 1013.6 hPa | 0 mm | - | - | - |
| 1777475518 | 17.22° C | 77% | 1013.9 hPa | 0 mm | - | - | - |
| 1777474618 | 16.67° C | 79% | 1014 hPa | 0 mm | - | - | - |
| 1777473718 | 16.67° C | 80% | 1014.3 hPa | 0 mm | - | - | - |
| 1777472818 | 16.11° C | 81% | 1014.6 hPa | 0 mm | - | - | - |
| 1777471918 | 15.56° C | 82% | 1014.7 hPa | 0 mm | - | - | - |
| 1777471018 | 15° C | 83% | 1014.8 hPa | 0 mm | - | - | - |
* Rain latest hour (hover to see other rain measurements)
** Current wind speed in m/s (hover to see current wind gust speed)